sensor_id;sensor_type;location;lat;lon;timestamp;P1;durP1;ratioP1;P2;durP2;ratioP2
11111;SDS011;5609;49.466;8.468;2023-02-15T00:01:29;88.27;;;33.27;;
11111;SDS011;5609;49.466;8.468;2023-02-15T00:03:56;149.53;;;34.57;;
11111;SDS011;5609;49.466;8.468;2023-02-15T00:06:25;74.07;;;32.13;;
11111;SDS011;5609;49.466;8.468;2023-02-15T00:08:51;79.37;;;32.50;;
11111;SDS011;5609;49.466;8.468;2023-02-15T00:11:20;74.10;;;32.93;;
11111;SDS011;5609;49.466;8.468;2023-02-15T00:14:04;89.33;;;31.60;;
11111;SDS011;5609;49.466;8.468;2023-02-15T00:16:32;78.83;;;30.17;;
11111;SDS011;5609;49.466;8.468;2023-02-15T00:18:59;57.60;;;29.30;;
11111;SDS011;5609;49.466;8.468;2023-02-15T00:21:28;70.40;;;28.37;;
11111;SDS011;5609;49.466;8.468;2023-02-15T00:23:56;62.23;;;28.37;;
11111;SDS011;5609;49.466;8.468;2023-02-15T00:26:23;57.87;;;28.10;;
11111;SDS011;5609;49.466;8.468;2023-02-15T00:28:50;58.83;;;28.67;;
11111;SDS011;5609;49.466;8.468;2023-02-15T00:31:17;70.60;;;28.47;;
11111;SDS011;5609;49.466;8.468;2023-02-15T00:33:44;55.43;;;27.17;;
11111;SDS011;5609;49.466;8.468;2023-02-15T00:36:11;60.60;;;27.93;;
11111;SDS011;5609;49.466;8.468;2023-02-15T00:38:40;54.77;;;26.50;;
11111;SDS011;5609;49.466;8.468;2023-02-15T00:43:36;50.50;;;27.17;;
11111;SDS011;5609;49.466;8.468;2023-02-15T00:46:03;57.63;;;26.43;;
11111;SDS011;5609;49.466;8.468;2023-02-15T00:48:31;54.40;;;26.33;;
11111;SDS011;5609;49.466;8.468;2023-02-15T00:50:58;52.70;;;25.17;;
11111;SDS011;5609;49.466;8.468;2023-02-15T00:53:26;55.53;;;25.80;;
11111;SDS011;5609;49.466;8.468;2023-02-15T00:55:55;63.33;;;26.20;;
11111;SDS011;5609;49.466;8.468;2023-02-15T00:58:22;52.60;;;24.93;;
11111;SDS011;5609;49.466;8.468;2023-02-15T01:00:49;68.00;;;25.90;;
11111;SDS011;5609;49.466;8.468;2023-02-15T01:03:17;57.00;;;26.00;;
11111;SDS011;5609;49.466;8.468;2023-02-15T01:05:46;49.23;;;26.30;;
11111;SDS011;5609;49.466;8.468;2023-02-15T01:08:13;53.60;;;25.07;;
11111;SDS011;5609;49.466;8.468;2023-02-15T01:10:40;71.97;;;24.80;;
11111;SDS011;5609;49.466;8.468;2023-02-15T01:13:10;65.57;;;23.60;;
11111;SDS011;5609;49.466;8.468;2023-02-15T01:15:37;45.77;;;23.37;;
11111;SDS011;5609;49.466;8.468;2023-02-15T01:18:03;43.90;;;23.63;;
11111;SDS011;5609;49.466;8.468;2023-02-15T01:20:33;67.17;;;24.47;;
11111;SDS011;5609;49.466;8.468;2023-02-15T01:23:04;68.23;;;22.83;;
11111;SDS011;5609;49.466;8.468;2023-02-15T01:25:32;53.37;;;22.93;;
11111;SDS011;5609;49.466;8.468;2023-02-15T01:28:00;65.83;;;24.57;;
11111;SDS011;5609;49.466;8.468;2023-02-15T01:30:29;56.03;;;23.17;;
11111;SDS011;5609;49.466;8.468;2023-02-15T01:32:55;58.40;;;24.23;;
11111;SDS011;5609;49.466;8.468;2023-02-15T01:35:22;67.73;;;24.17;;
11111;SDS011;5609;49.466;8.468;2023-02-15T01:37:49;49.20;;;23.90;;
11111;SDS011;5609;49.466;8.468;2023-02-15T01:40:17;65.53;;;24.27;;
11111;SDS011;5609;49.466;8.468;2023-02-15T01:42:44;43.87;;;22.90;;
11111;SDS011;5609;49.466;8.468;2023-02-15T01:45:16;51.57;;;23.97;;
11111;SDS011;5609;49.466;8.468;2023-02-15T01:47:49;45.87;;;23.73;;
11111;SDS011;5609;49.466;8.468;2023-02-15T01:50:21;43.53;;;23.07;;
11111;SDS011;5609;49.466;8.468;2023-02-15T01:52:53;49.00;;;23.20;;
11111;SDS011;5609;49.466;8.468;2023-02-15T01:55:23;51.80;;;23.23;;
11111;SDS011;5609;49.466;8.468;2023-02-15T01:57:53;41.53;;;23.03;;
11111;SDS011;5609;49.466;8.468;2023-02-15T02:00:20;42.47;;;22.93;;
11111;SDS011;5609;49.466;8.468;2023-02-15T02:02:49;39.73;;;21.67;;
11111;SDS011;5609;49.466;8.468;2023-02-15T02:05:19;42.30;;;21.80;;
11111;SDS011;5609;49.466;8.468;2023-02-15T02:07:46;52.37;;;23.47;;
11111;SDS011;5609;49.466;8.468;2023-02-15T02:10:17;44.27;;;23.77;;
11111;SDS011;5609;49.466;8.468;2023-02-15T02:12:45;49.27;;;23.33;;
11111;SDS011;5609;49.466;8.468;2023-02-15T02:15:15;45.70;;;23.40;;
11111;SDS011;5609;49.466;8.468;2023-02-15T02:17:45;38.00;;;22.67;;
11111;SDS011;5609;49.466;8.468;2023-02-15T02:20:28;47.60;;;23.23;;
11111;SDS011;5609;49.466;8.468;2023-02-15T02:23:14;45.03;;;23.17;;
11111;SDS011;5609;49.466;8.468;2023-02-15T02:26:07;42.87;;;23.03;;
11111;SDS011;5609;49.466;8.468;2023-02-15T02:29:12;46.70;;;22.97;;
11111;SDS011;5609;49.466;8.468;2023-02-15T02:32:01;45.60;;;23.43;;
11111;SDS011;5609;49.466;8.468;2023-02-15T02:34:44;41.57;;;22.80;;
11111;SDS011;5609;49.466;8.468;2023-02-15T02:37:19;45.93;;;22.70;;
11111;SDS011;5609;49.466;8.468;2023-02-15T02:39:55;38.13;;;22.63;;
11111;SDS011;5609;49.466;8.468;2023-02-15T02:42:29;37.47;;;23.37;;
11111;SDS011;5609;49.466;8.468;2023-02-15T02:45:02;35.13;;;20.97;;
11111;SDS011;5609;49.466;8.468;2023-02-15T02:47:32;33.70;;;20.40;;
11111;SDS011;5609;49.466;8.468;2023-02-15T02:50:06;31.80;;;19.70;;
11111;SDS011;5609;49.466;8.468;2023-02-15T02:52:37;35.63;;;20.23;;
11111;SDS011;5609;49.466;8.468;2023-02-15T02:55:06;32.33;;;20.07;;
11111;SDS011;5609;49.466;8.468;2023-02-15T02:57:38;33.63;;;20.00;;
11111;SDS011;5609;49.466;8.468;2023-02-15T03:00:09;32.33;;;19.73;;
11111;SDS011;5609;49.466;8.468;2023-02-15T03:02:37;27.10;;;18.33;;
11111;SDS011;5609;49.466;8.468;2023-02-15T03:05:10;28.00;;;18.20;;
11111;SDS011;5609;49.466;8.468;2023-02-15T03:07:41;28.70;;;18.73;;
11111;SDS011;5609;49.466;8.468;2023-02-15T03:10:12;25.13;;;18.07;;
11111;SDS011;5609;49.466;8.468;2023-02-15T03:12:40;30.20;;;19.70;;
11111;SDS011;5609;49.466;8.468;2023-02-15T03:15:08;28.93;;;19.67;;
11111;SDS011;5609;49.466;8.468;2023-02-15T03:17:40;30.90;;;19.37;;
11111;SDS011;5609;49.466;8.468;2023-02-15T03:20:13;28.83;;;19.27;;
11111;SDS011;5609;49.466;8.468;2023-02-15T03:22:44;30.33;;;19.23;;
11111;SDS011;5609;49.466;8.468;2023-02-15T03:25:16;31.10;;;18.97;;
11111;SDS011;5609;49.466;8.468;2023-02-15T03:27:47;29.57;;;19.13;;
11111;SDS011;5609;49.466;8.468;2023-02-15T03:30:18;27.37;;;19.17;;
11111;SDS011;5609;49.466;8.468;2023-02-15T03:32:48;29.07;;;19.13;;
11111;SDS011;5609;49.466;8.468;2023-02-15T03:35:19;26.80;;;19.03;;
11111;SDS011;5609;49.466;8.468;2023-02-15T03:37:50;31.17;;;19.93;;
11111;SDS011;5609;49.466;8.468;2023-02-15T03:40:21;30.30;;;20.07;;
11111;SDS011;5609;49.466;8.468;2023-02-15T03:43:10;29.27;;;19.97;;
11111;SDS011;5609;49.466;8.468;2023-02-15T03:45:40;28.93;;;19.47;;
11111;SDS011;5609;49.466;8.468;2023-02-15T03:48:19;27.93;;;18.83;;
11111;SDS011;5609;49.466;8.468;2023-02-15T03:50:51;28.93;;;18.77;;
11111;SDS011;5609;49.466;8.468;2023-02-15T03:53:38;28.67;;;19.77;;
11111;SDS011;5609;49.466;8.468;2023-02-15T03:56:06;27.07;;;18.80;;
11111;SDS011;5609;49.466;8.468;2023-02-15T03:58:32;29.50;;;18.97;;
11111;SDS011;5609;49.466;8.468;2023-02-15T04:01:18;29.67;;;19.70;;
11111;SDS011;5609;49.466;8.468;2023-02-15T04:04:11;28.50;;;18.67;;
11111;SDS011;5609;49.466;8.468;2023-02-15T04:06:45;28.27;;;19.30;;
11111;SDS011;5609;49.466;8.468;2023-02-15T04:09:12;31.47;;;20.37;;
11111;SDS011;5609;49.466;8.468;2023-02-15T04:11:56;28.23;;;18.70;;
11111;SDS011;5609;49.466;8.468;2023-02-15T04:14:23;29.57;;;19.43;;
11111;SDS011;5609;49.466;8.468;2023-02-15T04:17:08;24.83;;;18.53;;
11111;SDS011;5609;49.466;8.468;2023-02-15T04:19:35;27.67;;;18.43;;
11111;SDS011;5609;49.466;8.468;2023-02-15T04:22:20;24.53;;;18.17;;
11111;SDS011;5609;49.466;8.468;2023-02-15T04:25:05;26.57;;;18.83;;
11111;SDS011;5609;49.466;8.468;2023-02-15T04:27:38;27.83;;;18.80;;
11111;SDS011;5609;49.466;8.468;2023-02-15T04:30:08;27.80;;;18.40;;
11111;SDS011;5609;49.466;8.468;2023-02-15T04:32:37;28.57;;;18.83;;
11111;SDS011;5609;49.466;8.468;2023-02-15T04:35:04;28.13;;;19.40;;
11111;SDS011;5609;49.466;8.468;2023-02-15T04:37:33;30.50;;;19.90;;
11111;SDS011;5609;49.466;8.468;2023-02-15T04:40:00;27.53;;;18.73;;
11111;SDS011;5609;49.466;8.468;2023-02-15T04:42:28;26.47;;;18.43;;
11111;SDS011;5609;49.466;8.468;2023-02-15T04:44:54;27.37;;;18.50;;
11111;SDS011;5609;49.466;8.468;2023-02-15T04:47:21;27.13;;;18.27;;
11111;SDS011;5609;49.466;8.468;2023-02-15T04:49:48;30.17;;;19.57;;
11111;SDS011;5609;49.466;8.468;2023-02-15T04:52:15;27.80;;;19.37;;
11111;SDS011;5609;49.466;8.468;2023-02-15T04:54:44;30.53;;;19.47;;
11111;SDS011;5609;49.466;8.468;2023-02-15T04:57:10;28.37;;;19.73;;
11111;SDS011;5609;49.466;8.468;2023-02-15T04:59:37;30.33;;;19.90;;
11111;SDS011;5609;49.466;8.468;2023-02-15T05:02:04;26.93;;;19.13;;
11111;SDS011;5609;49.466;8.468;2023-02-15T05:04:31;26.90;;;18.47;;
11111;SDS011;5609;49.466;8.468;2023-02-15T05:06:58;26.00;;;18.53;;
11111;SDS011;5609;49.466;8.468;2023-02-15T05:09:24;28.43;;;19.13;;
11111;SDS011;5609;49.466;8.468;2023-02-15T05:11:52;29.07;;;20.37;;
11111;SDS011;5609;49.466;8.468;2023-02-15T05:14:19;29.63;;;19.87;;
11111;SDS011;5609;49.466;8.468;2023-02-15T05:16:46;32.43;;;20.33;;
11111;SDS011;5609;49.466;8.468;2023-02-15T05:19:12;30.40;;;20.07;;
11111;SDS011;5609;49.466;8.468;2023-02-15T05:21:39;30.70;;;20.73;;
11111;SDS011;5609;49.466;8.468;2023-02-15T05:24:06;27.77;;;19.27;;
11111;SDS011;5609;49.466;8.468;2023-02-15T05:26:54;28.03;;;19.00;;
11111;SDS011;5609;49.466;8.468;2023-02-15T05:29:39;29.17;;;19.60;;
11111;SDS011;5609;49.466;8.468;2023-02-15T05:32:06;29.80;;;20.10;;
11111;SDS011;5609;49.466;8.468;2023-02-15T05:34:32;27.93;;;20.47;;
11111;SDS011;5609;49.466;8.468;2023-02-15T05:36:59;29.57;;;19.90;;
11111;SDS011;5609;49.466;8.468;2023-02-15T05:39:26;27.90;;;19.90;;
11111;SDS011;5609;49.466;8.468;2023-02-15T05:41:52;29.73;;;19.77;;
11111;SDS011;5609;49.466;8.468;2023-02-15T05:44:20;27.57;;;18.33;;
11111;SDS011;5609;49.466;8.468;2023-02-15T05:46:47;23.83;;;17.90;;
11111;SDS011;5609;49.466;8.468;2023-02-15T05:49:14;27.00;;;18.90;;
11111;SDS011;5609;49.466;8.468;2023-02-15T05:51:40;28.97;;;19.67;;
11111;SDS011;5609;49.466;8.468;2023-02-15T05:54:07;27.60;;;18.90;;
11111;SDS011;5609;49.466;8.468;2023-02-15T05:56:34;29.93;;;18.73;;
11111;SDS011;5609;49.466;8.468;2023-02-15T05:59:02;27.07;;;18.60;;
11111;SDS011;5609;49.466;8.468;2023-02-15T06:01:30;27.87;;;19.00;;
11111;SDS011;5609;49.466;8.468;2023-02-15T06:03:56;28.43;;;18.70;;
11111;SDS011;5609;49.466;8.468;2023-02-15T06:06:23;28.77;;;19.27;;
11111;SDS011;5609;49.466;8.468;2023-02-15T06:08:50;28.87;;;19.10;;
11111;SDS011;5609;49.466;8.468;2023-02-15T06:11:17;27.57;;;19.50;;
11111;SDS011;5609;49.466;8.468;2023-02-15T06:13:43;30.37;;;19.93;;
11111;SDS011;5609;49.466;8.468;2023-02-15T06:16:12;28.27;;;19.10;;
11111;SDS011;5609;49.466;8.468;2023-02-15T06:18:40;27.60;;;18.80;;
11111;SDS011;5609;49.466;8.468;2023-02-15T06:21:07;28.00;;;19.23;;
11111;SDS011;5609;49.466;8.468;2023-02-15T06:23:34;27.23;;;18.77;;
11111;SDS011;5609;49.466;8.468;2023-02-15T06:26:01;26.90;;;19.00;;
11111;SDS011;5609;49.466;8.468;2023-02-15T06:28:28;27.47;;;18.23;;
11111;SDS011;5609;49.466;8.468;2023-02-15T06:30:54;25.20;;;18.33;;
11111;SDS011;5609;49.466;8.468;2023-02-15T06:33:22;26.20;;;18.07;;
11111;SDS011;5609;49.466;8.468;2023-02-15T06:35:49;26.73;;;18.13;;
11111;SDS011;5609;49.466;8.468;2023-02-15T06:38:16;29.43;;;18.90;;
11111;SDS011;5609;49.466;8.468;2023-02-15T06:40:43;25.57;;;18.10;;
11111;SDS011;5609;49.466;8.468;2023-02-15T06:43:10;25.50;;;18.00;;
11111;SDS011;5609;49.466;8.468;2023-02-15T06:45:36;27.40;;;18.83;;
11111;SDS011;5609;49.466;8.468;2023-02-15T06:48:03;25.27;;;18.00;;
11111;SDS011;5609;49.466;8.468;2023-02-15T06:50:33;29.60;;;18.80;;
11111;SDS011;5609;49.466;8.468;2023-02-15T06:53:00;25.83;;;18.60;;
11111;SDS011;5609;49.466;8.468;2023-02-15T06:55:26;26.43;;;19.17;;
11111;SDS011;5609;49.466;8.468;2023-02-15T06:57:53;24.10;;;17.00;;
11111;SDS011;5609;49.466;8.468;2023-02-15T07:00:20;27.57;;;18.60;;
11111;SDS011;5609;49.466;8.468;2023-02-15T07:02:48;25.57;;;17.97;;
11111;SDS011;5609;49.466;8.468;2023-02-15T07:05:21;25.87;;;17.77;;
11111;SDS011;5609;49.466;8.468;2023-02-15T07:07:49;28.27;;;18.27;;
11111;SDS011;5609;49.466;8.468;2023-02-15T07:10:16;26.57;;;18.27;;
11111;SDS011;5609;49.466;8.468;2023-02-15T07:12:43;27.13;;;17.63;;
11111;SDS011;5609;49.466;8.468;2023-02-15T07:15:11;22.83;;;17.30;;
11111;SDS011;5609;49.466;8.468;2023-02-15T07:17:39;23.43;;;17.07;;
11111;SDS011;5609;49.466;8.468;2023-02-15T07:20:07;24.03;;;17.23;;
11111;SDS011;5609;49.466;8.468;2023-02-15T07:22:39;26.47;;;17.30;;
11111;SDS011;5609;49.466;8.468;2023-02-15T07:25:08;26.20;;;16.13;;
11111;SDS011;5609;49.466;8.468;2023-02-15T07:27:36;20.47;;;15.73;;
11111;SDS011;5609;49.466;8.468;2023-02-15T07:30:04;24.93;;;16.83;;
11111;SDS011;5609;49.466;8.468;2023-02-15T07:32:32;21.17;;;16.13;;
11111;SDS011;5609;49.466;8.468;2023-02-15T07:34:59;22.23;;;16.77;;
11111;SDS011;5609;49.466;8.468;2023-02-15T07:37:26;23.10;;;16.57;;
11111;SDS011;5609;49.466;8.468;2023-02-15T07:39:53;24.53;;;16.77;;
11111;SDS011;5609;49.466;8.468;2023-02-15T07:42:21;20.17;;;15.40;;
11111;SDS011;5609;49.466;8.468;2023-02-15T07:44:48;24.03;;;17.10;;
11111;SDS011;5609;49.466;8.468;2023-02-15T07:47:15;21.87;;;16.97;;
11111;SDS011;5609;49.466;8.468;2023-02-15T07:49:41;20.43;;;15.87;;
11111;SDS011;5609;49.466;8.468;2023-02-15T07:52:08;22.30;;;17.10;;
11111;SDS011;5609;49.466;8.468;2023-02-15T07:54:35;23.43;;;17.93;;
11111;SDS011;5609;49.466;8.468;2023-02-15T07:57:02;25.57;;;18.23;;
11111;SDS011;5609;49.466;8.468;2023-02-15T07:59:30;24.40;;;18.10;;
11111;SDS011;5609;49.466;8.468;2023-02-15T08:01:57;29.40;;;17.43;;
11111;SDS011;5609;49.466;8.468;2023-02-15T08:04:24;27.27;;;17.70;;
11111;SDS011;5609;49.466;8.468;2023-02-15T08:06:52;26.67;;;18.23;;
11111;SDS011;5609;49.466;8.468;2023-02-15T08:09:20;27.70;;;17.50;;
11111;SDS011;5609;49.466;8.468;2023-02-15T08:11:47;23.43;;;17.80;;
11111;SDS011;5609;49.466;8.468;2023-02-15T08:14:14;24.40;;;17.73;;
11111;SDS011;5609;49.466;8.468;2023-02-15T08:16:44;23.57;;;18.00;;
11111;SDS011;5609;49.466;8.468;2023-02-15T08:19:12;25.53;;;17.97;;
11111;SDS011;5609;49.466;8.468;2023-02-15T08:21:41;24.10;;;18.37;;
11111;SDS011;5609;49.466;8.468;2023-02-15T08:24:09;21.90;;;17.07;;
11111;SDS011;5609;49.466;8.468;2023-02-15T08:26:38;24.90;;;17.93;;
11111;SDS011;5609;49.466;8.468;2023-02-15T08:29:06;22.40;;;16.97;;
11111;SDS011;5609;49.466;8.468;2023-02-15T08:31:34;27.33;;;17.77;;
11111;SDS011;5609;49.466;8.468;2023-02-15T08:34:04;28.00;;;18.70;;
11111;SDS011;5609;49.466;8.468;2023-02-15T08:36:31;25.17;;;18.97;;
11111;SDS011;5609;49.466;8.468;2023-02-15T08:38:59;23.33;;;17.53;;
11111;SDS011;5609;49.466;8.468;2023-02-15T08:41:27;24.70;;;17.60;;
11111;SDS011;5609;49.466;8.468;2023-02-15T08:43:56;24.00;;;17.40;;
11111;SDS011;5609;49.466;8.468;2023-02-15T08:46:25;22.27;;;16.87;;
11111;SDS011;5609;49.466;8.468;2023-02-15T08:48:55;23.33;;;17.57;;
11111;SDS011;5609;49.466;8.468;2023-02-15T08:51:24;23.50;;;17.27;;
11111;SDS011;5609;49.466;8.468;2023-02-15T08:53:53;22.43;;;17.23;;
11111;SDS011;5609;49.466;8.468;2023-02-15T08:56:22;21.73;;;16.87;;
11111;SDS011;5609;49.466;8.468;2023-02-15T08:58:50;22.83;;;16.37;;
11111;SDS011;5609;49.466;8.468;2023-02-15T09:01:19;23.20;;;15.83;;
11111;SDS011;5609;49.466;8.468;2023-02-15T09:03:48;24.73;;;16.53;;
11111;SDS011;5609;49.466;8.468;2023-02-15T09:06:17;21.90;;;16.33;;
11111;SDS011;5609;49.466;8.468;2023-02-15T09:08:46;20.70;;;15.77;;
11111;SDS011;5609;49.466;8.468;2023-02-15T09:11:14;22.60;;;16.17;;
11111;SDS011;5609;49.466;8.468;2023-02-15T09:13:47;21.37;;;16.20;;
11111;SDS011;5609;49.466;8.468;2023-02-15T09:16:15;23.40;;;16.53;;
11111;SDS011;5609;49.466;8.468;2023-02-15T09:18:42;22.13;;;17.23;;
11111;SDS011;5609;49.466;8.468;2023-02-15T09:21:10;24.53;;;16.50;;
11111;SDS011;5609;49.466;8.468;2023-02-15T09:23:39;23.20;;;17.00;;
11111;SDS011;5609;49.466;8.468;2023-02-15T09:26:08;25.80;;;17.07;;
11111;SDS011;5609;49.466;8.468;2023-02-15T09:28:37;23.20;;;17.47;;
11111;SDS011;5609;49.466;8.468;2023-02-15T09:31:05;28.80;;;18.13;;
11111;SDS011;5609;49.466;8.468;2023-02-15T09:33:34;23.33;;;17.83;;
11111;SDS011;5609;49.466;8.468;2023-02-15T09:36:01;22.13;;;17.40;;
11111;SDS011;5609;49.466;8.468;2023-02-15T09:38:28;22.73;;;16.97;;
11111;SDS011;5609;49.466;8.468;2023-02-15T09:40:59;22.57;;;16.80;;
11111;SDS011;5609;49.466;8.468;2023-02-15T09:43:39;21.73;;;16.83;;
11111;SDS011;5609;49.466;8.468;2023-02-15T09:46:16;21.37;;;16.57;;
11111;SDS011;5609;49.466;8.468;2023-02-15T09:48:49;21.57;;;17.57;;
11111;SDS011;5609;49.466;8.468;2023-02-15T09:51:28;20.70;;;16.53;;
11111;SDS011;5609;49.466;8.468;2023-02-15T09:54:25;22.43;;;16.77;;
11111;SDS011;5609;49.466;8.468;2023-02-15T09:57:10;20.10;;;16.70;;
11111;SDS011;5609;49.466;8.468;2023-02-15T09:59:48;21.07;;;16.53;;
11111;SDS011;5609;49.466;8.468;2023-02-15T10:02:27;21.60;;;17.27;;
11111;SDS011;5609;49.466;8.468;2023-02-15T10:05:10;23.17;;;17.43;;
11111;SDS011;5609;49.466;8.468;2023-02-15T10:07:58;25.30;;;19.30;;
11111;SDS011;5609;49.466;8.468;2023-02-15T10:10:38;25.93;;;19.93;;
11111;SDS011;5609;49.466;8.468;2023-02-15T10:13:19;23.23;;;18.10;;
11111;SDS011;5609;49.466;8.468;2023-02-15T10:15:59;28.07;;;21.43;;
11111;SDS011;5609;49.466;8.468;2023-02-15T10:18:40;25.53;;;20.40;;
11111;SDS011;5609;49.466;8.468;2023-02-15T10:21:19;22.57;;;18.27;;
11111;SDS011;5609;49.466;8.468;2023-02-15T10:24:00;25.53;;;19.70;;
11111;SDS011;5609;49.466;8.468;2023-02-15T10:26:42;26.73;;;20.60;;
11111;SDS011;5609;49.466;8.468;2023-02-15T10:29:12;28.77;;;20.80;;
11111;SDS011;5609;49.466;8.468;2023-02-15T10:31:49;29.20;;;22.07;;
11111;SDS011;5609;49.466;8.468;2023-02-15T10:34:18;27.87;;;21.33;;
11111;SDS011;5609;49.466;8.468;2023-02-15T10:36:53;30.33;;;22.27;;
11111;SDS011;5609;49.466;8.468;2023-02-15T10:39:38;31.13;;;22.50;;
11111;SDS011;5609;49.466;8.468;2023-02-15T10:42:15;29.50;;;22.53;;
11111;SDS011;5609;49.466;8.468;2023-02-15T10:44:55;31.83;;;23.33;;
11111;SDS011;5609;49.466;8.468;2023-02-15T10:47:37;32.10;;;23.53;;
11111;SDS011;5609;49.466;8.468;2023-02-15T10:50:21;31.63;;;23.40;;
11111;SDS011;5609;49.466;8.468;2023-02-15T10:52:59;31.93;;;23.27;;
11111;SDS011;5609;49.466;8.468;2023-02-15T10:55:44;31.80;;;23.67;;
11111;SDS011;5609;49.466;8.468;2023-02-15T10:58:21;33.53;;;24.10;;
11111;SDS011;5609;49.466;8.468;2023-02-15T11:00:57;32.13;;;24.20;;
11111;SDS011;5609;49.466;8.468;2023-02-15T11:03:39;32.03;;;24.87;;
11111;SDS011;5609;49.466;8.468;2023-02-15T11:06:14;33.63;;;24.63;;
11111;SDS011;5609;49.466;8.468;2023-02-15T11:08:45;34.77;;;24.93;;
11111;SDS011;5609;49.466;8.468;2023-02-15T11:11:15;32.67;;;24.37;;
11111;SDS011;5609;49.466;8.468;2023-02-15T11:13:48;31.80;;;23.83;;
11111;SDS011;5609;49.466;8.468;2023-02-15T11:16:18;32.40;;;24.80;;
11111;SDS011;5609;49.466;8.468;2023-02-15T11:18:52;33.87;;;24.70;;
11111;SDS011;5609;49.466;8.468;2023-02-15T11:21:22;30.80;;;24.20;;
11111;SDS011;5609;49.466;8.468;2023-02-15T11:23:52;30.37;;;22.83;;
11111;SDS011;5609;49.466;8.468;2023-02-15T11:26:21;30.77;;;23.37;;
11111;SDS011;5609;49.466;8.468;2023-02-15T11:28:55;31.00;;;23.97;;
11111;SDS011;5609;49.466;8.468;2023-02-15T11:31:25;32.40;;;24.63;;
11111;SDS011;5609;49.466;8.468;2023-02-15T11:33:58;30.73;;;23.63;;
11111;SDS011;5609;49.466;8.468;2023-02-15T11:36:31;29.97;;;22.87;;
11111;SDS011;5609;49.466;8.468;2023-02-15T11:39:01;27.87;;;21.67;;
11111;SDS011;5609;49.466;8.468;2023-02-15T11:41:31;30.63;;;23.40;;
11111;SDS011;5609;49.466;8.468;2023-02-15T11:44:05;32.20;;;24.07;;
11111;SDS011;5609;49.466;8.468;2023-02-15T11:46:38;31.57;;;24.97;;
11111;SDS011;5609;49.466;8.468;2023-02-15T11:49:09;32.90;;;24.97;;
11111;SDS011;5609;49.466;8.468;2023-02-15T11:51:47;32.63;;;23.43;;
11111;SDS011;5609;49.466;8.468;2023-02-15T11:54:15;33.07;;;25.13;;
11111;SDS011;5609;49.466;8.468;2023-02-15T11:56:44;32.10;;;24.20;;
11111;SDS011;5609;49.466;8.468;2023-02-15T11:59:11;33.13;;;26.00;;
11111;SDS011;5609;49.466;8.468;2023-02-15T12:01:45;32.00;;;24.73;;
11111;SDS011;5609;49.466;8.468;2023-02-15T12:04:16;31.80;;;24.83;;
11111;SDS011;5609;49.466;8.468;2023-02-15T12:06:49;31.60;;;25.27;;
11111;SDS011;5609;49.466;8.468;2023-02-15T12:09:28;31.07;;;24.00;;
11111;SDS011;5609;49.466;8.468;2023-02-15T12:14:48;31.43;;;24.47;;
11111;SDS011;5609;49.466;8.468;2023-02-15T12:17:16;32.93;;;25.03;;
11111;SDS011;5609;49.466;8.468;2023-02-15T12:19:45;32.67;;;25.17;;
11111;SDS011;5609;49.466;8.468;2023-02-15T12:22:18;30.77;;;24.73;;
11111;SDS011;5609;49.466;8.468;2023-02-15T12:24:49;30.30;;;25.33;;
11111;SDS011;5609;49.466;8.468;2023-02-15T12:27:18;31.80;;;24.97;;
11111;SDS011;5609;49.466;8.468;2023-02-15T12:29:48;32.27;;;25.90;;
11111;SDS011;5609;49.466;8.468;2023-02-15T12:32:18;28.93;;;24.13;;
11111;SDS011;5609;49.466;8.468;2023-02-15T12:34:50;31.13;;;24.40;;
11111;SDS011;5609;49.466;8.468;2023-02-15T12:37:19;29.10;;;24.40;;
11111;SDS011;5609;49.466;8.468;2023-02-15T12:39:54;32.53;;;25.47;;
11111;SDS011;5609;49.466;8.468;2023-02-15T12:42:21;29.30;;;23.20;;
11111;SDS011;5609;49.466;8.468;2023-02-15T12:44:53;30.50;;;24.47;;
11111;SDS011;5609;49.466;8.468;2023-02-15T12:47:22;29.80;;;24.33;;
11111;SDS011;5609;49.466;8.468;2023-02-15T12:50:05;30.00;;;24.13;;
11111;SDS011;5609;49.466;8.468;2023-02-15T12:52:41;31.20;;;24.80;;
11111;SDS011;5609;49.466;8.468;2023-02-15T12:55:18;29.43;;;24.30;;
11111;SDS011;5609;49.466;8.468;2023-02-15T12:57:47;28.80;;;24.30;;
11111;SDS011;5609;49.466;8.468;2023-02-15T13:00:25;30.80;;;25.43;;
11111;SDS011;5609;49.466;8.468;2023-02-15T13:02:56;29.33;;;23.60;;
11111;SDS011;5609;49.466;8.468;2023-02-15T13:05:27;29.67;;;23.77;;
11111;SDS011;5609;49.466;8.468;2023-02-15T13:07:58;25.83;;;21.73;;
11111;SDS011;5609;49.466;8.468;2023-02-15T13:10:28;27.67;;;23.40;;
11111;SDS011;5609;49.466;8.468;2023-02-15T13:12:57;28.47;;;23.33;;
11111;SDS011;5609;49.466;8.468;2023-02-15T13:15:28;31.17;;;24.33;;
11111;SDS011;5609;49.466;8.468;2023-02-15T13:18:02;28.37;;;23.30;;
11111;SDS011;5609;49.466;8.468;2023-02-15T13:20:32;30.53;;;24.60;;
11111;SDS011;5609;49.466;8.468;2023-02-15T13:23:05;29.30;;;24.40;;
11111;SDS011;5609;49.466;8.468;2023-02-15T13:25:43;29.53;;;24.07;;
11111;SDS011;5609;49.466;8.468;2023-02-15T13:28:16;30.03;;;25.13;;
11111;SDS011;5609;49.466;8.468;2023-02-15T13:30:46;30.53;;;24.93;;
11111;SDS011;5609;49.466;8.468;2023-02-15T13:33:16;30.50;;;25.10;;
11111;SDS011;5609;49.466;8.468;2023-02-15T13:35:57;29.03;;;24.30;;
11111;SDS011;5609;49.466;8.468;2023-02-15T13:41:33;29.37;;;24.33;;
11111;SDS011;5609;49.466;8.468;2023-02-15T13:44:09;28.70;;;24.10;;
11111;SDS011;5609;49.466;8.468;2023-02-15T13:46:52;30.43;;;25.07;;
11111;SDS011;5609;49.466;8.468;2023-02-15T13:49:35;31.10;;;24.67;;
11111;SDS011;5609;49.466;8.468;2023-02-15T13:52:18;30.10;;;24.57;;
11111;SDS011;5609;49.466;8.468;2023-02-15T13:54:51;29.57;;;23.90;;
11111;SDS011;5609;49.466;8.468;2023-02-15T13:57:32;29.33;;;23.73;;
11111;SDS011;5609;49.466;8.468;2023-02-15T14:00:20;28.57;;;24.03;;
11111;SDS011;5609;49.466;8.468;2023-02-15T14:02:55;28.20;;;23.67;;
11111;SDS011;5609;49.466;8.468;2023-02-15T14:08:45;27.07;;;22.77;;
11111;SDS011;5609;49.466;8.468;2023-02-15T14:11:21;28.63;;;23.80;;
11111;SDS011;5609;49.466;8.468;2023-02-15T14:13:56;28.00;;;23.90;;
11111;SDS011;5609;49.466;8.468;2023-02-15T14:16:39;28.93;;;24.03;;
11111;SDS011;5609;49.466;8.468;2023-02-15T14:19:13;27.83;;;23.23;;
11111;SDS011;5609;49.466;8.468;2023-02-15T14:21:47;26.77;;;22.47;;
11111;SDS011;5609;49.466;8.468;2023-02-15T14:24:23;28.10;;;23.53;;
11111;SDS011;5609;49.466;8.468;2023-02-15T14:26:56;41.13;;;25.90;;
11111;SDS011;5609;49.466;8.468;2023-02-15T14:29:38;31.33;;;23.53;;
11111;SDS011;5609;49.466;8.468;2023-02-15T14:32:14;27.90;;;23.87;;
11111;SDS011;5609;49.466;8.468;2023-02-15T14:34:46;27.70;;;23.03;;
11111;SDS011;5609;49.466;8.468;2023-02-15T14:37:18;28.17;;;24.60;;
11111;SDS011;5609;49.466;8.468;2023-02-15T14:39:54;29.67;;;24.33;;
11111;SDS011;5609;49.466;8.468;2023-02-15T14:42:45;29.27;;;24.13;;
11111;SDS011;5609;49.466;8.468;2023-02-15T14:45:20;27.33;;;23.17;;
11111;SDS011;5609;49.466;8.468;2023-02-15T14:47:55;27.33;;;22.90;;
11111;SDS011;5609;49.466;8.468;2023-02-15T14:56:21;51.20;;;25.00;;
11111;SDS011;5609;49.466;8.468;2023-02-15T14:58:55;27.33;;;23.50;;
11111;SDS011;5609;49.466;8.468;2023-02-15T15:01:40;29.73;;;25.70;;
11111;SDS011;5609;49.466;8.468;2023-02-15T15:04:08;26.73;;;23.37;;
11111;SDS011;5609;49.466;8.468;2023-02-15T15:06:40;27.77;;;23.97;;
11111;SDS011;5609;49.466;8.468;2023-02-15T15:09:10;28.07;;;23.60;;
11111;SDS011;5609;49.466;8.468;2023-02-15T15:11:45;28.23;;;23.27;;
11111;SDS011;5609;49.466;8.468;2023-02-15T15:17:06;27.37;;;24.07;;
11111;SDS011;5609;49.466;8.468;2023-02-15T15:22:39;28.00;;;23.83;;